sensor_id;sensor_type;location;lat;lon;timestamp;temperature;humidity
65584;DHT22;62116;43.582;1.470;2022-12-18T00:00:59;6.49;82.62
65584;DHT22;62116;43.582;1.470;2022-12-18T00:03:25;6.42;82.89
65584;DHT22;62116;43.582;1.470;2022-12-18T00:05:51;6.37;83.21
65584;DHT22;62116;43.582;1.470;2022-12-18T00:08:18;6.31;83.11
65584;DHT22;62116;43.582;1.470;2022-12-18T00:10:44;6.28;82.87
65584;DHT22;62116;43.582;1.470;2022-12-18T00:13:10;6.23;82.94
65584;DHT22;62116;43.582;1.470;2022-12-18T00:15:37;6.18;83.00
65584;DHT22;62116;43.582;1.470;2022-12-18T00:18:02;6.13;83.05
65584;DHT22;62116;43.582;1.470;2022-12-18T00:20:28;6.10;83.00
65584;DHT22;62116;43.582;1.470;2022-12-18T00:22:54;6.09;83.26
65584;DHT22;62116;43.582;1.470;2022-12-18T00:25:19;6.10;83.19
65584;DHT22;62116;43.582;1.470;2022-12-18T00:27:45;6.11;83.34
65584;DHT22;62116;43.582;1.470;2022-12-18T00:30:11;6.13;83.54
65584;DHT22;62116;43.582;1.470;2022-12-18T00:32:36;6.16;83.15
65584;DHT22;62116;43.582;1.470;2022-12-18T00:35:03;6.18;83.02
65584;DHT22;62116;43.582;1.470;2022-12-18T00:37:28;6.25;82.88
65584;DHT22;62116;43.582;1.470;2022-12-18T00:39:54;6.30;82.62
65584;DHT22;62116;43.582;1.470;2022-12-18T00:42:19;6.28;82.48
65584;DHT22;62116;43.582;1.470;2022-12-18T00:45:03;6.27;82.30
65584;DHT22;62116;43.582;1.470;2022-12-18T00:47:29;6.25;82.45
65584;DHT22;62116;43.582;1.470;2022-12-18T00:49:54;6.33;82.30
65584;DHT22;62116;43.582;1.470;2022-12-18T00:52:19;6.33;82.22
65584;DHT22;62116;43.582;1.470;2022-12-18T00:54:45;6.33;82.23
65584;DHT22;62116;43.582;1.470;2022-12-18T00:57:10;6.30;82.47
65584;DHT22;62116;43.582;1.470;2022-12-18T00:59:36;6.28;82.50
65584;DHT22;62116;43.582;1.470;2022-12-18T01:02:01;6.25;82.67
65584;DHT22;62116;43.582;1.470;2022-12-18T01:04:26;6.30;82.74
65584;DHT22;62116;43.582;1.470;2022-12-18T01:06:52;6.30;82.79
65584;DHT22;62116;43.582;1.470;2022-12-18T01:09:17;6.28;82.63
65584;DHT22;62116;43.582;1.470;2022-12-18T01:11:42;6.28;82.57
65584;DHT22;62116;43.582;1.470;2022-12-18T01:14:08;6.30;82.56
65584;DHT22;62116;43.582;1.470;2022-12-18T01:16:34;6.31;82.69
65584;DHT22;62116;43.582;1.470;2022-12-18T01:18:59;6.35;82.41
65584;DHT22;62116;43.582;1.470;2022-12-18T01:21:24;6.30;82.36
65584;DHT22;62116;43.582;1.470;2022-12-18T01:23:54;6.37;82.10
65584;DHT22;62116;43.582;1.470;2022-12-18T01:26:20;6.28;82.09
65584;DHT22;62116;43.582;1.470;2022-12-18T01:28:46;6.31;81.91
65584;DHT22;62116;43.582;1.470;2022-12-18T01:31:22;6.31;81.80
65584;DHT22;62116;43.582;1.470;2022-12-18T01:33:47;6.24;81.70
65584;DHT22;62116;43.582;1.470;2022-12-18T01:38:47;6.16;81.96
65584;DHT22;62116;43.582;1.470;2022-12-18T01:41:14;6.13;81.97
65584;DHT22;62116;43.582;1.470;2022-12-18T01:46:13;6.06;82.02
65584;DHT22;62116;43.582;1.470;2022-12-18T01:48:39;6.06;81.89
65584;DHT22;62116;43.582;1.470;2022-12-18T01:51:08;6.00;82.03
65584;DHT22;62116;43.582;1.470;2022-12-18T01:53:34;6.00;82.04
65584;DHT22;62116;43.582;1.470;2022-12-18T01:56:01;6.00;81.88
65584;DHT22;62116;43.582;1.470;2022-12-18T01:58:58;5.93;81.97
65584;DHT22;62116;43.582;1.470;2022-12-18T02:01:25;5.92;81.90
65584;DHT22;62116;43.582;1.470;2022-12-18T02:03:51;5.89;81.79
65584;DHT22;62116;43.582;1.470;2022-12-18T02:06:24;5.82;82.09
65584;DHT22;62116;43.582;1.470;2022-12-18T02:09:14;5.72;82.39
65584;DHT22;62116;43.582;1.470;2022-12-18T02:11:55;5.69;82.55
65584;DHT22;62116;43.582;1.470;2022-12-18T02:16:54;5.73;82.45
65584;DHT22;62116;43.582;1.470;2022-12-18T02:22:33;5.69;82.40
65584;DHT22;62116;43.582;1.470;2022-12-18T02:25:23;5.66;82.35
65584;DHT22;62116;43.582;1.470;2022-12-18T02:27:52;5.62;82.54
65584;DHT22;62116;43.582;1.470;2022-12-18T02:30:18;5.58;82.42
65584;DHT22;62116;43.582;1.470;2022-12-18T02:32:50;5.56;82.52
65584;DHT22;62116;43.582;1.470;2022-12-18T02:35:20;5.56;82.43
65584;DHT22;62116;43.582;1.470;2022-12-18T02:37:47;5.59;82.07
65584;DHT22;62116;43.582;1.470;2022-12-18T02:40:14;5.52;82.02
65584;DHT22;62116;43.582;1.470;2022-12-18T02:42:40;5.52;82.13
65584;DHT22;62116;43.582;1.470;2022-12-18T02:45:06;5.43;82.60
65584;DHT22;62116;43.582;1.470;2022-12-18T02:47:36;5.40;82.62
65584;DHT22;62116;43.582;1.470;2022-12-18T02:50:35;5.32;82.73
65584;DHT22;62116;43.582;1.470;2022-12-18T02:58:57;5.36;82.35
65584;DHT22;62116;43.582;1.470;2022-12-18T03:03:56;5.40;82.18
65584;DHT22;62116;43.582;1.470;2022-12-18T03:07:09;5.34;82.37
65584;DHT22;62116;43.582;1.470;2022-12-18T03:09:29;5.36;82.38
65584;DHT22;62116;43.582;1.470;2022-12-18T03:12:06;5.35;82.46
65584;DHT22;62116;43.582;1.470;2022-12-18T03:17:33;5.31;82.39
65584;DHT22;62116;43.582;1.470;2022-12-18T03:20:05;5.29;82.43
65584;DHT22;62116;43.582;1.470;2022-12-18T03:22:33;5.24;82.55
65584;DHT22;62116;43.582;1.470;2022-12-18T03:25:03;5.22;82.54
65584;DHT22;62116;43.582;1.470;2022-12-18T03:27:30;5.26;82.56
65584;DHT22;62116;43.582;1.470;2022-12-18T03:30:03;5.25;82.51
65584;DHT22;62116;43.582;1.470;2022-12-18T03:32:40;5.25;82.48
65584;DHT22;62116;43.582;1.470;2022-12-18T03:35:07;5.22;82.32
65584;DHT22;62116;43.582;1.470;2022-12-18T03:37:35;5.24;82.34
65584;DHT22;62116;43.582;1.470;2022-12-18T03:40:01;5.25;82.09
65584;DHT22;62116;43.582;1.470;2022-12-18T03:45:18;5.32;81.86
65584;DHT22;62116;43.582;1.470;2022-12-18T03:48:02;5.24;81.91
65584;DHT22;62116;43.582;1.470;2022-12-18T03:50:53;5.19;82.18
65584;DHT22;62116;43.582;1.470;2022-12-18T03:53:32;5.11;82.25
65584;DHT22;62116;43.582;1.470;2022-12-18T03:56:00;5.05;82.36
65584;DHT22;62116;43.582;1.470;2022-12-18T03:58:27;4.99;82.28
65584;DHT22;62116;43.582;1.470;2022-12-18T04:00:56;4.96;82.11
65584;DHT22;62116;43.582;1.470;2022-12-18T04:03:24;4.89;82.01
65584;DHT22;62116;43.582;1.470;2022-12-18T04:05:52;4.74;81.96
65584;DHT22;62116;43.582;1.470;2022-12-18T04:08:20;4.71;81.83
65584;DHT22;62116;43.582;1.470;2022-12-18T04:10:46;4.61;82.13
65584;DHT22;62116;43.582;1.470;2022-12-18T04:13:12;4.50;82.42
65584;DHT22;62116;43.582;1.470;2022-12-18T04:15:38;4.50;82.50
65584;DHT22;62116;43.582;1.470;2022-12-18T04:18:03;4.44;82.33
65584;DHT22;62116;43.582;1.470;2022-12-18T04:20:29;4.37;82.63
65584;DHT22;62116;43.582;1.470;2022-12-18T04:22:55;4.37;82.82
65584;DHT22;62116;43.582;1.470;2022-12-18T04:25:20;4.33;82.91
65584;DHT22;62116;43.582;1.470;2022-12-18T04:27:45;4.33;83.04
65584;DHT22;62116;43.582;1.470;2022-12-18T04:30:11;4.29;83.23
65584;DHT22;62116;43.582;1.470;2022-12-18T04:32:36;4.26;83.38
65584;DHT22;62116;43.582;1.470;2022-12-18T04:35:02;4.27;83.40
65584;DHT22;62116;43.582;1.470;2022-12-18T04:37:29;4.20;83.61
65584;DHT22;62116;43.582;1.470;2022-12-18T04:39:55;4.20;83.74
65584;DHT22;62116;43.582;1.470;2022-12-18T04:42:20;4.14;83.95
65584;DHT22;62116;43.582;1.470;2022-12-18T04:44:46;4.11;84.20
65584;DHT22;62116;43.582;1.470;2022-12-18T04:47:12;4.09;84.25
65584;DHT22;62116;43.582;1.470;2022-12-18T04:49:37;4.10;84.43
65584;DHT22;62116;43.582;1.470;2022-12-18T04:52:03;4.10;84.54
65584;DHT22;62116;43.582;1.470;2022-12-18T04:54:28;4.11;84.67
65584;DHT22;62116;43.582;1.470;2022-12-18T04:56:53;4.17;84.60
65584;DHT22;62116;43.582;1.470;2022-12-18T04:59:19;4.19;84.53
65584;DHT22;62116;43.582;1.470;2022-12-18T05:01:44;4.17;84.56
65584;DHT22;62116;43.582;1.470;2022-12-18T05:04:10;4.21;84.42
65584;DHT22;62116;43.582;1.470;2022-12-18T05:06:36;4.21;84.50
65584;DHT22;62116;43.582;1.470;2022-12-18T05:09:01;4.23;84.59
65584;DHT22;62116;43.582;1.470;2022-12-18T05:11:27;4.29;84.47
65584;DHT22;62116;43.582;1.470;2022-12-18T05:13:52;4.29;84.54
65584;DHT22;62116;43.582;1.470;2022-12-18T05:16:17;4.34;84.48
65584;DHT22;62116;43.582;1.470;2022-12-18T05:18:43;4.33;84.53
65584;DHT22;62116;43.582;1.470;2022-12-18T05:21:08;4.33;84.49
65584;DHT22;62116;43.582;1.470;2022-12-18T05:23:35;4.44;84.36
65584;DHT22;62116;43.582;1.470;2022-12-18T05:26:03;4.43;84.22
65584;DHT22;62116;43.582;1.470;2022-12-18T05:28:30;4.49;84.27
65584;DHT22;62116;43.582;1.470;2022-12-18T05:31:01;4.47;84.35
65584;DHT22;62116;43.582;1.470;2022-12-18T05:33:28;4.54;84.35
65584;DHT22;62116;43.582;1.470;2022-12-18T05:35:56;4.56;84.18
65584;DHT22;62116;43.582;1.470;2022-12-18T05:38:23;4.56;84.00
65584;DHT22;62116;43.582;1.470;2022-12-18T05:40:50;4.54;83.95
65584;DHT22;62116;43.582;1.470;2022-12-18T05:43:16;4.60;83.78
65584;DHT22;62116;43.582;1.470;2022-12-18T05:45:42;4.53;83.78
65584;DHT22;62116;43.582;1.470;2022-12-18T05:48:08;4.61;83.73
65584;DHT22;62116;43.582;1.470;2022-12-18T05:50:38;4.58;83.74
65584;DHT22;62116;43.582;1.470;2022-12-18T05:53:05;4.61;83.52
65584;DHT22;62116;43.582;1.470;2022-12-18T05:55:34;4.64;83.52
65584;DHT22;62116;43.582;1.470;2022-12-18T05:58:00;4.63;83.55
65584;DHT22;62116;43.582;1.470;2022-12-18T06:00:26;4.61;83.44
65584;DHT22;62116;43.582;1.470;2022-12-18T06:02:51;4.57;83.50
65584;DHT22;62116;43.582;1.470;2022-12-18T06:05:16;4.58;83.42
65584;DHT22;62116;43.582;1.470;2022-12-18T06:07:42;4.60;83.55
65584;DHT22;62116;43.582;1.470;2022-12-18T06:10:07;4.60;83.43
65584;DHT22;62116;43.582;1.470;2022-12-18T06:12:33;4.68;83.32
65584;DHT22;62116;43.582;1.470;2022-12-18T06:14:59;4.74;83.16
65584;DHT22;62116;43.582;1.470;2022-12-18T06:17:29;4.81;82.99
65584;DHT22;62116;43.582;1.470;2022-12-18T06:19:54;4.83;83.23
65584;DHT22;62116;43.582;1.470;2022-12-18T06:22:20;4.80;83.50
65584;DHT22;62116;43.582;1.470;2022-12-18T06:24:45;4.81;83.53
65584;DHT22;62116;43.582;1.470;2022-12-18T06:27:11;4.75;83.55
65584;DHT22;62116;43.582;1.470;2022-12-18T06:29:36;4.77;83.74
65584;DHT22;62116;43.582;1.470;2022-12-18T06:32:01;4.80;83.48
65584;DHT22;62116;43.582;1.470;2022-12-18T06:34:27;4.78;83.64
65584;DHT22;62116;43.582;1.470;2022-12-18T06:36:52;4.81;83.27
65584;DHT22;62116;43.582;1.470;2022-12-18T06:39:18;4.77;83.41
65584;DHT22;62116;43.582;1.470;2022-12-18T06:41:43;4.77;83.76
65584;DHT22;62116;43.582;1.470;2022-12-18T06:44:08;4.70;83.56
65584;DHT22;62116;43.582;1.470;2022-12-18T06:46:34;4.74;83.69
65584;DHT22;62116;43.582;1.470;2022-12-18T06:48:59;4.73;83.66
65584;DHT22;62116;43.582;1.470;2022-12-18T06:51:25;4.73;83.73
65584;DHT22;62116;43.582;1.470;2022-12-18T06:53:50;4.77;83.67
65584;DHT22;62116;43.582;1.470;2022-12-18T06:56:16;4.73;83.89
65584;DHT22;62116;43.582;1.470;2022-12-18T06:58:41;4.75;84.01
65584;DHT22;62116;43.582;1.470;2022-12-18T07:01:09;4.80;83.97
65584;DHT22;62116;43.582;1.470;2022-12-18T07:03:36;4.78;84.20
65584;DHT22;62116;43.582;1.470;2022-12-18T07:06:02;4.78;83.87
65584;DHT22;62116;43.582;1.470;2022-12-18T07:08:30;4.80;83.98
65584;DHT22;62116;43.582;1.470;2022-12-18T07:10:55;4.80;83.91
65584;DHT22;62116;43.582;1.470;2022-12-18T07:13:21;4.83;83.63
65584;DHT22;62116;43.582;1.470;2022-12-18T07:15:46;4.87;83.57
65584;DHT22;62116;43.582;1.470;2022-12-18T07:18:12;4.87;83.69
65584;DHT22;62116;43.582;1.470;2022-12-18T07:20:37;4.96;83.85
65584;DHT22;62116;43.582;1.470;2022-12-18T07:23:03;5.02;83.96
65584;DHT22;62116;43.582;1.470;2022-12-18T07:25:33;5.12;84.13
65584;DHT22;62116;43.582;1.470;2022-12-18T07:27:58;5.14;84.06
65584;DHT22;62116;43.582;1.470;2022-12-18T07:30:24;5.16;84.07
65584;DHT22;62116;43.582;1.470;2022-12-18T07:32:49;5.16;84.16
65584;DHT22;62116;43.582;1.470;2022-12-18T07:35:15;5.18;84.37
65584;DHT22;62116;43.582;1.470;2022-12-18T07:37:40;5.22;84.44
65584;DHT22;62116;43.582;1.470;2022-12-18T07:40:06;5.21;84.56
65584;DHT22;62116;43.582;1.470;2022-12-18T07:42:32;5.28;84.50
65584;DHT22;62116;43.582;1.470;2022-12-18T07:44:58;5.31;84.34
65584;DHT22;62116;43.582;1.470;2022-12-18T07:47:24;5.39;84.18
65584;DHT22;62116;43.582;1.470;2022-12-18T07:49:49;5.39;83.99
65584;DHT22;62116;43.582;1.470;2022-12-18T07:52:14;5.38;84.16
65584;DHT22;62116;43.582;1.470;2022-12-18T07:54:40;5.39;84.32
65584;DHT22;62116;43.582;1.470;2022-12-18T07:57:06;5.38;84.79
65584;DHT22;62116;43.582;1.470;2022-12-18T07:59:32;5.46;84.80
65584;DHT22;62116;43.582;1.470;2022-12-18T08:01:57;5.49;84.77
65584;DHT22;62116;43.582;1.470;2022-12-18T08:04:23;5.56;84.80
65584;DHT22;62116;43.582;1.470;2022-12-18T08:06:49;5.66;84.78
65584;DHT22;62116;43.582;1.470;2022-12-18T08:09:14;5.69;84.86
65584;DHT22;62116;43.582;1.470;2022-12-18T08:11:40;5.76;84.76
65584;DHT22;62116;43.582;1.470;2022-12-18T08:14:05;5.83;84.56
65584;DHT22;62116;43.582;1.470;2022-12-18T08:16:30;5.89;84.53
65584;DHT22;62116;43.582;1.470;2022-12-18T08:18:56;5.96;84.67
65584;DHT22;62116;43.582;1.470;2022-12-18T08:21:27;6.04;84.87
65584;DHT22;62116;43.582;1.470;2022-12-18T08:23:54;6.11;85.07
65584;DHT22;62116;43.582;1.470;2022-12-18T08:26:20;6.18;85.07
65584;DHT22;62116;43.582;1.470;2022-12-18T08:28:46;6.25;85.18
65584;DHT22;62116;43.582;1.470;2022-12-18T08:31:12;6.33;85.19
65584;DHT22;62116;43.582;1.470;2022-12-18T08:33:37;6.42;85.25
65584;DHT22;62116;43.582;1.470;2022-12-18T08:36:04;6.52;85.18
65584;DHT22;62116;43.582;1.470;2022-12-18T08:38:29;6.61;85.13
65584;DHT22;62116;43.582;1.470;2022-12-18T08:41:03;6.68;85.20
65584;DHT22;62116;43.582;1.470;2022-12-18T08:43:29;6.77;85.17
65584;DHT22;62116;43.582;1.470;2022-12-18T08:46:13;6.85;85.11
65584;DHT22;62116;43.582;1.470;2022-12-18T08:48:39;6.93;85.06
65584;DHT22;62116;43.582;1.470;2022-12-18T08:51:04;7.08;84.93
65584;DHT22;62116;43.582;1.470;2022-12-18T08:53:30;7.16;84.76
65584;DHT22;62116;43.582;1.470;2022-12-18T08:55:56;7.27;84.50
65584;DHT22;62116;43.582;1.470;2022-12-18T08:58:22;7.37;84.23
65584;DHT22;62116;43.582;1.470;2022-12-18T09:00:48;7.49;84.06
65584;DHT22;62116;43.582;1.470;2022-12-18T09:03:18;7.59;83.87
65584;DHT22;62116;43.582;1.470;2022-12-18T09:05:45;7.70;83.56
65584;DHT22;62116;43.582;1.470;2022-12-18T09:08:12;7.81;83.24
65584;DHT22;62116;43.582;1.470;2022-12-18T09:10:44;7.88;82.95
65584;DHT22;62116;43.582;1.470;2022-12-18T09:13:11;8.01;82.55
65584;DHT22;62116;43.582;1.470;2022-12-18T09:15:42;8.18;82.17
65584;DHT22;62116;43.582;1.470;2022-12-18T09:18:09;8.38;81.53
65584;DHT22;62116;43.582;1.470;2022-12-18T09:20:36;8.63;80.96
65584;DHT22;62116;43.582;1.470;2022-12-18T09:23:02;8.89;80.35
65584;DHT22;62116;43.582;1.470;2022-12-18T09:25:29;9.20;79.48
65584;DHT22;62116;43.582;1.470;2022-12-18T09:28:11;9.55;78.31
65584;DHT22;62116;43.582;1.470;2022-12-18T09:30:41;9.87;77.20
65584;DHT22;62116;43.582;1.470;2022-12-18T09:33:07;10.16;76.58
65584;DHT22;62116;43.582;1.470;2022-12-18T09:35:32;10.53;75.55
65584;DHT22;62116;43.582;1.470;2022-12-18T09:38:00;10.95;74.51
65584;DHT22;62116;43.582;1.470;2022-12-18T09:40:29;11.33;73.48
65584;DHT22;62116;43.582;1.470;2022-12-18T09:43:00;11.57;72.55
65584;DHT22;62116;43.582;1.470;2022-12-18T09:45:26;11.75;71.99
65584;DHT22;62116;43.582;1.470;2022-12-18T09:47:53;12.16;70.48
65584;DHT22;62116;43.582;1.470;2022-12-18T09:50:32;12.32;69.27
65584;DHT22;62116;43.582;1.470;2022-12-18T09:53:04;12.69;68.55
65584;DHT22;62116;43.582;1.470;2022-12-18T09:55:34;12.60;67.90
65584;DHT22;62116;43.582;1.470;2022-12-18T09:58:06;12.67;67.72
65584;DHT22;62116;43.582;1.470;2022-12-18T10:00:32;12.79;67.24
65584;DHT22;62116;43.582;1.470;2022-12-18T10:03:08;12.93;67.74
65584;DHT22;62116;43.582;1.470;2022-12-18T10:08:30;13.00;66.74
65584;DHT22;62116;43.582;1.470;2022-12-18T10:14:01;13.06;66.11
65584;DHT22;62116;43.582;1.470;2022-12-18T10:19:33;13.07;66.18
65584;DHT22;62116;43.582;1.470;2022-12-18T10:22:18;13.25;66.36
65584;DHT22;62116;43.582;1.470;2022-12-18T10:24:59;13.20;65.07
65584;DHT22;62116;43.582;1.470;2022-12-18T10:27:27;13.21;65.44
65584;DHT22;62116;43.582;1.470;2022-12-18T10:29:54;13.30;65.12
65584;DHT22;62116;43.582;1.470;2022-12-18T10:32:30;13.28;64.59
65584;DHT22;62116;43.582;1.470;2022-12-18T10:34:57;13.35;64.60
65584;DHT22;62116;43.582;1.470;2022-12-18T10:37:25;13.31;64.82
65584;DHT22;62116;43.582;1.470;2022-12-18T10:40:14;13.18;64.54
65584;DHT22;62116;43.582;1.470;2022-12-18T10:42:40;13.31;64.94
65584;DHT22;62116;43.582;1.470;2022-12-18T10:45:15;13.34;64.51
65584;DHT22;62116;43.582;1.470;2022-12-18T10:47:47;13.30;64.71
65584;DHT22;62116;43.582;1.470;2022-12-18T10:50:34;13.27;65.04
65584;DHT22;62116;43.582;1.470;2022-12-18T10:53:03;13.23;64.69
65584;DHT22;62116;43.582;1.470;2022-12-18T10:55:34;13.24;65.06
65584;DHT22;62116;43.582;1.470;2022-12-18T11:01:16;13.07;64.84
65584;DHT22;62116;43.582;1.470;2022-12-18T11:06:10;13.04;65.49
65584;DHT22;62116;43.582;1.470;2022-12-18T11:08:36;13.04;65.81
65584;DHT22;62116;43.582;1.470;2022-12-18T11:11:06;12.96;65.60
65584;DHT22;62116;43.582;1.470;2022-12-18T11:13:32;12.91;65.80
65584;DHT22;62116;43.582;1.470;2022-12-18T11:15:59;12.96;65.85
65584;DHT22;62116;43.582;1.470;2022-12-18T11:18:34;12.94;66.43
65584;DHT22;62116;43.582;1.470;2022-12-18T11:21:08;12.86;66.40
65584;DHT22;62116;43.582;1.470;2022-12-18T11:23:35;12.80;66.81
65584;DHT22;62116;43.582;1.470;2022-12-18T11:26:03;12.66;66.40
65584;DHT22;62116;43.582;1.470;2022-12-18T11:28:36;12.64;66.62
65584;DHT22;62116;43.582;1.470;2022-12-18T11:33:42;12.69;66.99
65584;DHT22;62116;43.582;1.470;2022-12-18T11:36:10;12.67;66.75
65584;DHT22;62116;43.582;1.470;2022-12-18T11:38:38;12.67;66.87
65584;DHT22;62116;43.582;1.470;2022-12-18T11:41:34;12.57;66.68
65584;DHT22;62116;43.582;1.470;2022-12-18T11:44:25;12.56;66.64
65584;DHT22;62116;43.582;1.470;2022-12-18T11:46:55;12.40;66.77
65584;DHT22;62116;43.582;1.470;2022-12-18T11:49:35;12.38;67.00
65584;DHT22;62116;43.582;1.470;2022-12-18T11:52:21;12.39;66.94
65584;DHT22;62116;43.582;1.470;2022-12-18T11:54:53;12.35;67.04
65584;DHT22;62116;43.582;1.470;2022-12-18T12:00:13;12.28;67.85
65584;DHT22;62116;43.582;1.470;2022-12-18T12:02:48;12.30;67.99
65584;DHT22;62116;43.582;1.470;2022-12-18T12:05:40;12.29;68.13
65584;DHT22;62116;43.582;1.470;2022-12-18T12:16:41;12.11;69.49
65584;DHT22;62116;43.582;1.470;2022-12-18T12:22:11;12.06;70.34
65584;DHT22;62116;43.582;1.470;2022-12-18T12:27:57;12.02;71.52
65584;DHT22;62116;43.582;1.470;2022-12-18T12:32:57;12.11;71.66
65584;DHT22;62116;43.582;1.470;2022-12-18T12:35:54;12.14;71.68
65584;DHT22;62116;43.582;1.470;2022-12-18T12:38:30;12.12;71.57
65584;DHT22;62116;43.582;1.470;2022-12-18T12:41:00;12.05;71.60
65584;DHT22;62116;43.582;1.470;2022-12-18T12:43:43;11.95;72.02
65584;DHT22;62116;43.582;1.470;2022-12-18T12:46:11;11.94;72.32
65584;DHT22;62116;43.582;1.470;2022-12-18T12:48:46;11.92;72.58
65584;DHT22;62116;43.582;1.470;2022-12-18T12:51:23;11.88;72.77
65584;DHT22;62116;43.582;1.470;2022-12-18T12:53:51;11.86;72.94
65584;DHT22;62116;43.582;1.470;2022-12-18T12:56:19;11.84;73.08
65584;DHT22;62116;43.582;1.470;2022-12-18T13:01:29;11.81;73.13
65584;DHT22;62116;43.582;1.470;2022-12-18T13:06:42;11.84;73.30
65584;DHT22;62116;43.582;1.470;2022-12-18T13:09:09;11.82;73.42
65584;DHT22;62116;43.582;1.470;2022-12-18T13:11:38;11.88;73.46
65584;DHT22;62116;43.582;1.470;2022-12-18T13:14:29;11.85;73.73
65584;DHT22;62116;43.582;1.470;2022-12-18T13:19:39;11.88;73.69
65584;DHT22;62116;43.582;1.470;2022-12-18T13:22:12;11.81;73.87
65584;DHT22;62116;43.582;1.470;2022-12-18T13:24:45;11.79;74.19
65584;DHT22;62116;43.582;1.470;2022-12-18T13:30:46;11.82;74.45
65584;DHT22;62116;43.582;1.470;2022-12-18T13:43:24;11.77;74.58
65584;DHT22;62116;43.582;1.470;2022-12-18T13:46:06;11.75;74.37
65584;DHT22;62116;43.582;1.470;2022-12-18T13:51:20;11.78;74.47
65584;DHT22;62116;43.582;1.470;2022-12-18T13:54:06;11.81;74.74
65584;DHT22;62116;43.582;1.470;2022-12-18T13:56:43;11.82;74.58
65584;DHT22;62116;43.582;1.470;2022-12-18T14:01:45;11.84;74.27
65584;DHT22;62116;43.582;1.470;2022-12-18T14:04:18;11.89;74.52
65584;DHT22;62116;43.582;1.470;2022-12-18T14:06:44;11.88;74.30
65584;DHT22;62116;43.582;1.470;2022-12-18T14:09:16;11.92;74.30
65584;DHT22;62116;43.582;1.470;2022-12-18T14:11:50;11.95;74.47
65584;DHT22;62116;43.582;1.470;2022-12-18T14:14:17;11.96;74.71
65584;DHT22;62116;43.582;1.470;2022-12-18T14:16:43;11.99;74.71
65584;DHT22;62116;43.582;1.470;2022-12-18T14:19:15;12.01;74.98
65584;DHT22;62116;43.582;1.470;2022-12-18T14:21:47;12.02;75.09
65584;DHT22;62116;43.582;1.470;2022-12-18T14:24:21;12.08;74.98
65584;DHT22;62116;43.582;1.470;2022-12-18T14:26:48;12.08;74.79
65584;DHT22;62116;43.582;1.470;2022-12-18T14:31:43;12.12;75.06
65584;DHT22;62116;43.582;1.470;2022-12-18T14:34:16;12.11;75.03
65584;DHT22;62116;43.582;1.470;2022-12-18T14:36:53;12.09;75.15
65584;DHT22;62116;43.582;1.470;2022-12-18T14:39:20;12.11;75.47
65584;DHT22;62116;43.582;1.470;2022-12-18T14:41:48;12.11;75.54
65584;DHT22;62116;43.582;1.470;2022-12-18T14:44:14;12.11;75.53
65584;DHT22;62116;43.582;1.470;2022-12-18T14:46:39;12.11;75.57
65584;DHT22;62116;43.582;1.470;2022-12-18T14:52:05;12.06;75.81
65584;DHT22;62116;43.582;1.470;2022-12-18T14:54:32;12.09;75.86
65584;DHT22;62116;43.582;1.470;2022-12-18T14:57:05;12.09;75.84
65584;DHT22;62116;43.582;1.470;2022-12-18T14:59:37;12.09;76.06
65584;DHT22;62116;43.582;1.470;2022-12-18T15:02:35;12.08;76.12
65584;DHT22;62116;43.582;1.470;2022-12-18T15:07:54;12.09;76.44
65584;DHT22;62116;43.582;1.470;2022-12-18T15:10:22;12.08;76.50
65584;DHT22;62116;43.582;1.470;2022-12-18T15:33:36;11.94;78.02
65584;DHT22;62116;43.582;1.470;2022-12-18T15:36:04;11.95;78.22
65584;DHT22;62116;43.582;1.470;2022-12-18T15:38:30;11.91;78.41
65584;DHT22;62116;43.582;1.470;2022-12-18T15:40:56;11.91;78.57
65584;DHT22;62116;43.582;1.470;2022-12-18T15:43:23;11.88;78.98
65584;DHT22;62116;43.582;1.470;2022-12-18T15:46:05;11.84;79.28
65584;DHT22;62116;43.582;1.470;2022-12-18T15:48:38;11.79;79.54
65584;DHT22;62116;43.582;1.470;2022-12-18T15:51:05;11.75;79.69
65584;DHT22;62116;43.582;1.470;2022-12-18T15:53:34;11.74;80.03
65584;DHT22;62116;43.582;1.470;2022-12-18T15:56:00;11.71;80.13
65584;DHT22;62116;43.582;1.470;2022-12-18T15:58:44;11.70;80.28
65584;DHT22;62116;43.582;1.470;2022-12-18T16:01:10;11.68;80.38
65584;DHT22;62116;43.582;1.470;2022-12-18T16:03:36;11.67;80.56
65584;DHT22;62116;43.582;1.470;2022-12-18T16:06:02;11.65;80.53
65584;DHT22;62116;43.582;1.470;2022-12-18T16:08:31;11.65;80.59
65584;DHT22;62116;43.582;1.470;2022-12-18T16:10:57;11.58;80.84
65584;DHT22;62116;43.582;1.470;2022-12-18T16:13:23;11.58;80.87
65584;DHT22;62116;43.582;1.470;2022-12-18T16:15:48;11.54;80.94
65584;DHT22;62116;43.582;1.470;2022-12-18T16:18:14;11.55;80.91
65584;DHT22;62116;43.582;1.470;2022-12-18T16:20:40;11.45;81.26
65584;DHT22;62116;43.582;1.470;2022-12-18T16:23:05;11.45;81.39
65584;DHT22;62116;43.582;1.470;2022-12-18T16:25:31;11.42;81.60
65584;DHT22;62116;43.582;1.470;2022-12-18T16:27:56;11.40;81.54
65584;DHT22;62116;43.582;1.470;2022-12-18T16:30:24;11.38;81.71
65584;DHT22;62116;43.582;1.470;2022-12-18T16:32:52;11.37;82.01
65584;DHT22;62116;43.582;1.470;2022-12-18T16:35:18;11.34;82.01
65584;DHT22;62116;43.582;1.470;2022-12-18T16:37:43;11.34;82.00
65584;DHT22;62116;43.582;1.470;2022-12-18T16:40:11;11.31;82.10
65584;DHT22;62116;43.582;1.470;2022-12-18T16:42:39;11.28;82.27
65584;DHT22;62116;43.582;1.470;2022-12-18T16:45:06;11.28;82.47
65584;DHT22;62116;43.582;1.470;2022-12-18T16:47:31;11.27;82.52
65584;DHT22;62116;43.582;1.470;2022-12-18T16:49:57;11.23;82.67
65584;DHT22;62116;43.582;1.470;2022-12-18T16:52:23;11.21;82.90
65584;DHT22;62116;43.582;1.470;2022-12-18T16:54:48;11.24;82.94
65584;DHT22;62116;43.582;1.470;2022-12-18T16:57:18;11.21;83.06
65584;DHT22;62116;43.582;1.470;2022-12-18T16:59:44;11.17;83.14
65584;DHT22;62116;43.582;1.470;2022-12-18T17:02:21;11.14;83.19
65584;DHT22;62116;43.582;1.470;2022-12-18T17:04:47;11.14;83.50
65584;DHT22;62116;43.582;1.470;2022-12-18T17:07:13;11.13;83.48
65584;DHT22;62116;43.582;1.470;2022-12-18T17:09:39;11.16;83.61
65584;DHT22;62116;43.582;1.470;2022-12-18T17:12:05;11.16;83.69
65584;DHT22;62116;43.582;1.470;2022-12-18T17:14:31;11.16;83.92
65584;DHT22;62116;43.582;1.470;2022-12-18T17:16:56;11.13;83.96
65584;DHT22;62116;43.582;1.470;2022-12-18T17:19:23;11.17;84.14
65584;DHT22;62116;43.582;1.470;2022-12-18T17:21:49;11.19;84.09
65584;DHT22;62116;43.582;1.470;2022-12-18T17:24:15;11.17;84.21
65584;DHT22;62116;43.582;1.470;2022-12-18T17:26:41;11.17;84.37
65584;DHT22;62116;43.582;1.470;2022-12-18T17:29:07;11.20;84.39
65584;DHT22;62116;43.582;1.470;2022-12-18T17:31:34;11.21;84.67
65584;DHT22;62116;43.582;1.470;2022-12-18T17:34:02;11.20;84.79
65584;DHT22;62116;43.582;1.470;2022-12-18T17:36:28;11.20;85.13
65584;DHT22;62116;43.582;1.470;2022-12-18T17:38:57;11.34;85.04
65584;DHT22;62116;43.582;1.470;2022-12-18T17:41:24;11.30;85.25
65584;DHT22;62116;43.582;1.470;2022-12-18T17:43:55;11.30;85.36
65584;DHT22;62116;43.582;1.470;2022-12-18T17:46:22;11.34;85.54
65584;DHT22;62116;43.582;1.470;2022-12-18T17:48:47;11.33;85.91